sensor_id;sensor_type;location;lat;lon;timestamp;pressure;altitude;pressure_sealevel;temperature;humidity
50105;BME280;47690;39.202;-77.198;2023-02-22T00:20:55;99357.44;;;40.57;6.35
50105;BME280;47690;39.202;-77.198;2023-02-22T00:32:44;99381.72;;;40.57;6.32
50105;BME280;47690;39.202;-77.198;2023-02-22T01:46:00;99569.31;;;37.40;7.36
50105;BME280;47690;39.202;-77.198;2023-02-22T01:49:06;99575.28;;;37.03;7.42
50105;BME280;47690;39.202;-77.198;2023-02-22T01:52:22;99561.94;;;36.89;7.59
50105;BME280;47690;39.202;-77.198;2023-02-22T02:00:17;99580.84;;;36.62;7.73
50105;BME280;47690;39.202;-77.198;2023-02-22T02:03:24;99591.16;;;36.52;7.83
50105;BME280;47690;39.202;-77.198;2023-02-22T02:06:44;99594.66;;;36.46;7.87
50105;BME280;47690;39.202;-77.198;2023-02-22T02:12:53;99615.75;;;36.35;7.98
50105;BME280;47690;39.202;-77.198;2023-02-22T02:27:13;99636.13;;;36.50;7.40
50105;BME280;47690;39.202;-77.198;2023-02-22T02:46:31;99676.34;;;36.50;7.58
50105;BME280;47690;39.202;-77.198;2023-02-22T02:56:20;99699.41;;;36.92;6.98
50105;BME280;47690;39.202;-77.198;2023-02-22T03:00:23;99716.59;;;36.63;6.91
50105;BME280;47690;39.202;-77.198;2023-02-22T03:11:21;99727.88;;;35.98;7.67
50105;BME280;47690;39.202;-77.198;2023-02-22T03:20:54;99749.09;;;35.93;7.39
50105;BME280;47690;39.202;-77.198;2023-02-22T03:30:24;99738.53;;;35.71;7.40
50105;BME280;47690;39.202;-77.198;2023-02-22T03:35:06;99755.81;;;35.68;7.49
50105;BME280;47690;39.202;-77.198;2023-02-22T03:40:01;99752.03;;;35.49;7.54
50105;BME280;47690;39.202;-77.198;2023-02-22T03:43:46;99750.91;;;35.30;7.61
50105;BME280;47690;39.202;-77.198;2023-02-22T03:53:41;99751.91;;;35.64;6.88
50105;BME280;47690;39.202;-77.198;2023-02-22T03:58:06;99748.72;;;35.47;6.97
50105;BME280;47690;39.202;-77.198;2023-02-22T04:00:56;99767.44;;;35.40;7.52
50105;BME280;47690;39.202;-77.198;2023-02-22T04:04:24;99763.25;;;35.66;6.71
50105;BME280;47690;39.202;-77.198;2023-02-22T04:13:19;99761.03;;;35.77;7.11
50105;BME280;47690;39.202;-77.198;2023-02-22T04:16:56;99760.38;;;35.68;6.85
50105;BME280;47690;39.202;-77.198;2023-02-22T04:21:07;99768.63;;;35.73;6.95
50105;BME280;47690;39.202;-77.198;2023-02-22T04:25:42;99779.78;;;35.90;6.62
50105;BME280;47690;39.202;-77.198;2023-02-22T04:29:23;99787.25;;;35.53;6.98
50105;BME280;47690;39.202;-77.198;2023-02-22T04:37:09;99800.16;;;35.36;6.98
50105;BME280;47690;39.202;-77.198;2023-02-22T04:41:21;99799.28;;;35.28;6.95
50105;BME280;47690;39.202;-77.198;2023-02-22T04:46:54;99802.19;;;35.27;7.20
50105;BME280;47690;39.202;-77.198;2023-02-22T04:51:21;99827.38;;;35.11;6.95
50105;BME280;47690;39.202;-77.198;2023-02-22T04:59:24;99857.38;;;34.56;7.18
50105;BME280;47690;39.202;-77.198;2023-02-22T05:03:17;99872.34;;;34.35;7.34
50105;BME280;47690;39.202;-77.198;2023-02-22T05:06:05;99875.06;;;34.20;7.12
50105;BME280;47690;39.202;-77.198;2023-02-22T05:08:51;99891.00;;;33.98;7.86
50105;BME280;47690;39.202;-77.198;2023-02-22T05:11:48;99904.66;;;33.88;7.46
50105;BME280;47690;39.202;-77.198;2023-02-22T05:15:33;99908.38;;;34.02;7.73
50105;BME280;47690;39.202;-77.198;2023-02-22T05:18:08;99917.28;;;33.79;7.68
50105;BME280;47690;39.202;-77.198;2023-02-22T05:21:20;99923.72;;;34.00;7.34
50105;BME280;47690;39.202;-77.198;2023-02-22T05:24:40;99915.16;;;33.90;7.46
50105;BME280;47690;39.202;-77.198;2023-02-22T05:27:17;99919.84;;;33.58;8.00
50105;BME280;47690;39.202;-77.198;2023-02-22T05:29:49;99913.25;;;33.30;8.06
50105;BME280;47690;39.202;-77.198;2023-02-22T05:32:40;99916.16;;;33.20;7.58
50105;BME280;47690;39.202;-77.198;2023-02-22T05:35:20;99913.81;;;33.02;8.17
50105;BME280;47690;39.202;-77.198;2023-02-22T05:37:53;99906.69;;;32.94;7.80
50105;BME280;47690;39.202;-77.198;2023-02-22T05:40:38;99912.44;;;33.06;8.09
50105;BME280;47690;39.202;-77.198;2023-02-22T05:43:23;99923.25;;;33.51;8.06
50105;BME280;47690;39.202;-77.198;2023-02-22T05:46:05;99929.47;;;33.05;7.95
50105;BME280;47690;39.202;-77.198;2023-02-22T05:48:45;99934.16;;;33.03;7.86
50105;BME280;47690;39.202;-77.198;2023-02-22T05:51:40;99947.97;;;33.07;8.01
50105;BME280;47690;39.202;-77.198;2023-02-22T05:54:23;99961.22;;;33.15;7.96
50105;BME280;47690;39.202;-77.198;2023-02-22T05:57:08;99962.63;;;34.18;6.97
50105;BME280;47690;39.202;-77.198;2023-02-22T06:00:09;99978.94;;;33.55;7.62
50105;BME280;47690;39.202;-77.198;2023-02-22T06:03:21;99980.44;;;33.34;7.36
50105;BME280;47690;39.202;-77.198;2023-02-22T06:06:37;99978.34;;;33.21;7.70
50105;BME280;47690;39.202;-77.198;2023-02-22T06:09:20;99967.38;;;32.92;8.03
50105;BME280;47690;39.202;-77.198;2023-02-22T06:12:25;99972.91;;;33.76;7.35
50105;BME280;47690;39.202;-77.198;2023-02-22T06:15:24;99961.38;;;32.99;7.82
50105;BME280;47690;39.202;-77.198;2023-02-22T06:18:09;99962.09;;;33.54;7.28
50105;BME280;47690;39.202;-77.198;2023-02-22T06:20:45;99967.75;;;33.74;7.14
50105;BME280;47690;39.202;-77.198;2023-02-22T06:23:25;99976.22;;;33.63;7.63
50105;BME280;47690;39.202;-77.198;2023-02-22T06:26:17;99966.75;;;32.59;8.04
50105;BME280;47690;39.202;-77.198;2023-02-22T06:29:04;99973.22;;;33.19;7.31
50105;BME280;47690;39.202;-77.198;2023-02-22T06:31:47;99995.00;;;32.28;8.11
50105;BME280;47690;39.202;-77.198;2023-02-22T06:34:24;100007.53;;;32.19;8.09
50105;BME280;47690;39.202;-77.198;2023-02-22T06:37:03;100011.19;;;32.10;8.17
50105;BME280;47690;39.202;-77.198;2023-02-22T06:39:36;100032.53;;;31.93;8.06
50105;BME280;47690;39.202;-77.198;2023-02-22T06:42:10;100026.22;;;31.86;8.01
50105;BME280;47690;39.202;-77.198;2023-02-22T06:45:18;100018.59;;;31.83;8.09
50105;BME280;47690;39.202;-77.198;2023-02-22T06:47:52;100022.41;;;31.72;8.15
50105;BME280;47690;39.202;-77.198;2023-02-22T06:50:44;100026.06;;;31.71;8.18
50105;BME280;47690;39.202;-77.198;2023-02-22T06:53:23;100033.72;;;31.66;8.36
50105;BME280;47690;39.202;-77.198;2023-02-22T06:56:03;100016.59;;;31.68;8.49
50105;BME280;47690;39.202;-77.198;2023-02-22T06:58:37;100006.09;;;31.58;8.54
50105;BME280;47690;39.202;-77.198;2023-02-22T07:01:07;100020.22;;;31.51;8.47
50105;BME280;47690;39.202;-77.198;2023-02-22T07:03:40;100023.06;;;31.49;8.63
50105;BME280;47690;39.202;-77.198;2023-02-22T07:06:13;100021.72;;;31.37;8.67
50105;BME280;47690;39.202;-77.198;2023-02-22T07:08:47;100010.91;;;31.30;8.32
50105;BME280;47690;39.202;-77.198;2023-02-22T07:11:43;99999.94;;;31.33;8.45
50105;BME280;47690;39.202;-77.198;2023-02-22T07:14:25;100019.38;;;31.25;8.42
50105;BME280;47690;39.202;-77.198;2023-02-22T07:17:23;100014.06;;;31.33;8.27
50105;BME280;47690;39.202;-77.198;2023-02-22T07:20:17;100017.41;;;31.36;8.41
50105;BME280;47690;39.202;-77.198;2023-02-22T07:23:07;100023.50;;;32.19;8.11
50105;BME280;47690;39.202;-77.198;2023-02-22T07:25:49;100012.91;;;31.44;8.51
50105;BME280;47690;39.202;-77.198;2023-02-22T07:28:34;100007.53;;;31.19;8.48
50105;BME280;47690;39.202;-77.198;2023-02-22T07:31:12;100010.19;;;31.03;8.55
50105;BME280;47690;39.202;-77.198;2023-02-22T07:33:48;100000.53;;;30.93;8.42
50105;BME280;47690;39.202;-77.198;2023-02-22T07:36:40;99995.72;;;30.97;8.65
50105;BME280;47690;39.202;-77.198;2023-02-22T07:39:12;99984.03;;;30.82;8.58
50105;BME280;47690;39.202;-77.198;2023-02-22T07:41:42;99984.97;;;31.48;8.06
50105;BME280;47690;39.202;-77.198;2023-02-22T07:44:22;99981.22;;;30.83;8.95
50105;BME280;47690;39.202;-77.198;2023-02-22T07:47:09;99969.25;;;30.79;8.80
50105;BME280;47690;39.202;-77.198;2023-02-22T07:49:47;99978.69;;;30.73;8.73
50105;BME280;47690;39.202;-77.198;2023-02-22T07:52:21;99982.56;;;30.87;8.32
50105;BME280;47690;39.202;-77.198;2023-02-22T07:55:04;99989.50;;;30.72;8.66
50105;BME280;47690;39.202;-77.198;2023-02-22T07:57:41;99990.94;;;30.66;8.66
50105;BME280;47690;39.202;-77.198;2023-02-22T08:00:36;99998.78;;;30.67;8.69
50105;BME280;47690;39.202;-77.198;2023-02-22T08:03:25;100012.84;;;30.60;8.61
50105;BME280;47690;39.202;-77.198;2023-02-22T08:06:13;100014.69;;;30.59;8.84
50105;BME280;47690;39.202;-77.198;2023-02-22T08:08:48;100019.59;;;30.46;8.75
50105;BME280;47690;39.202;-77.198;2023-02-22T08:11:44;100026.91;;;30.44;8.64
50105;BME280;47690;39.202;-77.198;2023-02-22T08:14:15;100029.78;;;30.24;8.90
50105;BME280;47690;39.202;-77.198;2023-02-22T08:16:48;100040.22;;;30.17;8.76
50105;BME280;47690;39.202;-77.198;2023-02-22T08:19:23;100039.13;;;30.28;8.66
50105;BME280;47690;39.202;-77.198;2023-02-22T08:22:05;100049.91;;;30.26;8.75
50105;BME280;47690;39.202;-77.198;2023-02-22T08:24:41;100060.53;;;30.26;9.01
50105;BME280;47690;39.202;-77.198;2023-02-22T08:27:33;100057.41;;;30.31;8.68
50105;BME280;47690;39.202;-77.198;2023-02-22T08:30:07;100061.00;;;30.22;8.92
50105;BME280;47690;39.202;-77.198;2023-02-22T08:32:41;100083.84;;;30.15;8.95
50105;BME280;47690;39.202;-77.198;2023-02-22T08:35:20;100084.56;;;30.25;8.87
50105;BME280;47690;39.202;-77.198;2023-02-22T08:37:57;100092.50;;;30.17;8.96
50105;BME280;47690;39.202;-77.198;2023-02-22T08:40:39;100090.50;;;30.19;8.80
50105;BME280;47690;39.202;-77.198;2023-02-22T08:43:16;100072.69;;;31.07;8.54
50105;BME280;47690;39.202;-77.198;2023-02-22T08:45:48;100094.34;;;30.43;8.73
50105;BME280;47690;39.202;-77.198;2023-02-22T08:48:33;100101.84;;;30.21;8.76
50105;BME280;47690;39.202;-77.198;2023-02-22T08:51:09;100103.06;;;30.08;9.23
50105;BME280;47690;39.202;-77.198;2023-02-22T08:53:51;100085.06;;;30.02;8.85
50105;BME280;47690;39.202;-77.198;2023-02-22T08:56:22;100090.16;;;29.95;8.91
50105;BME280;47690;39.202;-77.198;2023-02-22T08:59:16;100076.03;;;29.95;9.19
50105;BME280;47690;39.202;-77.198;2023-02-22T09:01:47;100073.66;;;29.83;9.01
50105;BME280;47690;39.202;-77.198;2023-02-22T09:04:19;100076.44;;;29.82;9.01
50105;BME280;47690;39.202;-77.198;2023-02-22T09:07:01;100082.81;;;29.89;9.05
50105;BME280;47690;39.202;-77.198;2023-02-22T09:09:44;100091.44;;;29.91;9.29
50105;BME280;47690;39.202;-77.198;2023-02-22T09:12:25;100093.03;;;29.84;8.94
50105;BME280;47690;39.202;-77.198;2023-02-22T09:15:09;100097.06;;;29.88;9.12
50105;BME280;47690;39.202;-77.198;2023-02-22T09:17:45;100099.19;;;29.84;8.84
50105;BME280;47690;39.202;-77.198;2023-02-22T09:20:21;100098.00;;;29.79;8.84
50105;BME280;47690;39.202;-77.198;2023-02-22T09:23:08;100086.13;;;29.91;9.00
50105;BME280;47690;39.202;-77.198;2023-02-22T09:25:55;100093.44;;;29.89;9.00
50105;BME280;47690;39.202;-77.198;2023-02-22T09:28:40;100095.25;;;29.89;9.05
50105;BME280;47690;39.202;-77.198;2023-02-22T09:31:17;100098.41;;;29.92;8.59
50105;BME280;47690;39.202;-77.198;2023-02-22T09:33:52;100100.56;;;29.89;8.75
50105;BME280;47690;39.202;-77.198;2023-02-22T09:36:46;100109.56;;;29.96;9.11
50105;BME280;47690;39.202;-77.198;2023-02-22T09:39:20;100111.41;;;29.95;8.98
50105;BME280;47690;39.202;-77.198;2023-02-22T09:44:47;100124.97;;;30.10;8.97
50105;BME280;47690;39.202;-77.198;2023-02-22T09:47:25;100117.91;;;30.19;8.94
50105;BME280;47690;39.202;-77.198;2023-02-22T09:50:19;100096.19;;;30.24;8.75
50105;BME280;47690;39.202;-77.198;2023-02-22T09:53:25;100093.78;;;30.31;8.78
50105;BME280;47690;39.202;-77.198;2023-02-22T09:56:19;100092.91;;;30.30;9.02
50105;BME280;47690;39.202;-77.198;2023-02-22T09:58:56;100097.03;;;30.24;9.02
50105;BME280;47690;39.202;-77.198;2023-02-22T10:01:45;100098.09;;;30.32;9.15
50105;BME280;47690;39.202;-77.198;2023-02-22T10:04:48;100094.53;;;30.49;9.10
50105;BME280;47690;39.202;-77.198;2023-02-22T10:08:02;100082.78;;;30.60;8.72
50105;BME280;47690;39.202;-77.198;2023-02-22T10:10:54;100064.28;;;30.50;8.78
50105;BME280;47690;39.202;-77.198;2023-02-22T10:20:11;100073.47;;;30.56;8.88
50105;BME280;47690;39.202;-77.198;2023-02-22T10:25:50;100148.84;;;30.55;8.58
50105;BME280;47690;39.202;-77.198;2023-02-22T10:28:51;100168.25;;;30.47;8.91
50105;BME280;47690;39.202;-77.198;2023-02-22T10:31:51;100163.41;;;30.43;8.74
50105;BME280;47690;39.202;-77.198;2023-02-22T10:34:49;100179.41;;;30.51;9.04
50105;BME280;47690;39.202;-77.198;2023-02-22T10:37:40;100197.69;;;30.54;8.77
50105;BME280;47690;39.202;-77.198;2023-02-22T10:40:18;100194.97;;;30.46;8.86
50105;BME280;47690;39.202;-77.198;2023-02-22T10:43:12;100191.09;;;30.58;8.70
50105;BME280;47690;39.202;-77.198;2023-02-22T10:45:50;100197.91;;;30.61;8.84
50105;BME280;47690;39.202;-77.198;2023-02-22T10:48:37;100181.88;;;30.71;8.92
50105;BME280;47690;39.202;-77.198;2023-02-22T10:51:13;100180.22;;;30.70;8.91
50105;BME280;47690;39.202;-77.198;2023-02-22T10:54:17;100180.50;;;30.93;9.20
50105;BME280;47690;39.202;-77.198;2023-02-22T10:56:56;100178.19;;;30.90;9.13
50105;BME280;47690;39.202;-77.198;2023-02-22T10:59:45;100164.06;;;30.98;8.64
50105;BME280;47690;39.202;-77.198;2023-02-22T11:02:36;100182.72;;;31.06;9.09
50105;BME280;47690;39.202;-77.198;2023-02-22T11:05:30;100168.91;;;31.02;8.98
50105;BME280;47690;39.202;-77.198;2023-02-22T11:11:00;100178.03;;;31.00;8.83
50105;BME280;47690;39.202;-77.198;2023-02-22T11:13:52;100183.41;;;31.08;8.76
50105;BME280;47690;39.202;-77.198;2023-02-22T11:16:52;100202.38;;;31.13;8.85
50105;BME280;47690;39.202;-77.198;2023-02-22T11:20:36;100225.78;;;31.36;8.77
50105;BME280;47690;39.202;-77.198;2023-02-22T11:23:24;100232.91;;;31.27;8.64
50105;BME280;47690;39.202;-77.198;2023-02-22T11:26:12;100225.38;;;31.23;8.81
50105;BME280;47690;39.202;-77.198;2023-02-22T11:28:52;100211.63;;;31.27;8.69
50105;BME280;47690;39.202;-77.198;2023-02-22T11:31:41;100192.34;;;31.33;8.75
50105;BME280;47690;39.202;-77.198;2023-02-22T11:34:38;100203.84;;;31.42;8.96
50105;BME280;47690;39.202;-77.198;2023-02-22T11:37:35;100223.00;;;31.54;8.70
50105;BME280;47690;39.202;-77.198;2023-02-22T11:40:17;100233.28;;;31.41;8.67
50105;BME280;47690;39.202;-77.198;2023-02-22T11:43:33;100228.53;;;31.61;8.77
50105;BME280;47690;39.202;-77.198;2023-02-22T11:46:17;100226.19;;;31.58;8.73
50105;BME280;47690;39.202;-77.198;2023-02-22T11:52:38;100237.75;;;31.83;9.06
50105;BME280;47690;39.202;-77.198;2023-02-22T11:55:27;100238.53;;;31.67;8.99
50105;BME280;47690;39.202;-77.198;2023-02-22T12:07:24;100269.56;;;31.85;8.57
50105;BME280;47690;39.202;-77.198;2023-02-22T12:10:31;100262.44;;;31.94;8.27
50105;BME280;47690;39.202;-77.198;2023-02-22T12:21:42;100276.94;;;32.33;8.15
50105;BME280;47690;39.202;-77.198;2023-02-22T12:24:45;100300.16;;;32.40;8.23
50105;BME280;47690;39.202;-77.198;2023-02-22T12:27:57;100286.00;;;32.56;8.08
50105;BME280;47690;39.202;-77.198;2023-02-22T12:37:18;100310.66;;;32.67;8.50
50105;BME280;47690;39.202;-77.198;2023-02-22T12:43:50;100322.31;;;32.99;8.47
50105;BME280;47690;39.202;-77.198;2023-02-22T12:46:46;100340.31;;;32.97;8.52
50105;BME280;47690;39.202;-77.198;2023-02-22T12:52:50;100364.50;;;32.95;8.18
50105;BME280;47690;39.202;-77.198;2023-02-22T12:58:47;100364.50;;;33.04;8.71
50105;BME280;47690;39.202;-77.198;2023-02-22T13:01:18;100373.34;;;33.04;8.19
50105;BME280;47690;39.202;-77.198;2023-02-22T13:04:44;100381.47;;;33.36;8.17
50105;BME280;47690;39.202;-77.198;2023-02-22T13:14:08;100373.56;;;33.68;8.04
50105;BME280;47690;39.202;-77.198;2023-02-22T13:16:51;100377.47;;;33.48;7.91
50105;BME280;47690;39.202;-77.198;2023-02-22T13:25:54;100384.69;;;33.79;7.86
50105;BME280;47690;39.202;-77.198;2023-02-22T13:29:36;100384.09;;;34.01;7.64
50105;BME280;47690;39.202;-77.198;2023-02-22T13:46:00;100442.72;;;34.42;7.73
50105;BME280;47690;39.202;-77.198;2023-02-22T13:52:28;100453.25;;;34.44;7.89
50105;BME280;47690;39.202;-77.198;2023-02-22T13:55:25;100450.09;;;34.40;8.04
50105;BME280;47690;39.202;-77.198;2023-02-22T13:58:13;100446.47;;;34.33;8.03
50105;BME280;47690;39.202;-77.198;2023-02-22T14:01:33;100450.03;;;34.49;7.99
50105;BME280;47690;39.202;-77.198;2023-02-22T14:04:48;100449.66;;;34.60;7.70
50105;BME280;47690;39.202;-77.198;2023-02-22T14:10:38;100434.25;;;34.62;7.92
50105;BME280;47690;39.202;-77.198;2023-02-22T14:13:22;100420.78;;;34.55;7.82
50105;BME280;47690;39.202;-77.198;2023-02-22T14:18:48;100408.28;;;34.47;8.35
50105;BME280;47690;39.202;-77.198;2023-02-22T14:21:22;100412.59;;;34.49;8.19
50105;BME280;47690;39.202;-77.198;2023-02-22T14:24:13;100404.56;;;34.57;8.35
50105;BME280;47690;39.202;-77.198;2023-02-22T14:27:03;100399.31;;;34.64;8.27
50105;BME280;47690;39.202;-77.198;2023-02-22T14:29:54;100385.94;;;34.64;8.32
50105;BME280;47690;39.202;-77.198;2023-02-22T14:32:33;100396.00;;;34.62;8.22
50105;BME280;47690;39.202;-77.198;2023-02-22T14:35:12;100405.28;;;34.74;8.25
50105;BME280;47690;39.202;-77.198;2023-02-22T14:38:16;100403.00;;;34.86;8.17
50105;BME280;47690;39.202;-77.198;2023-02-22T14:40:52;100401.38;;;34.77;8.22
50105;BME280;47690;39.202;-77.198;2023-02-22T14:43:36;100406.31;;;34.88;8.31
50105;BME280;47690;39.202;-77.198;2023-02-22T14:46:21;100424.69;;;34.91;8.57
50105;BME280;47690;39.202;-77.198;2023-02-22T14:49:08;100435.22;;;34.93;8.33
50105;BME280;47690;39.202;-77.198;2023-02-22T14:52:13;100466.56;;;35.07;8.32
50105;BME280;47690;39.202;-77.198;2023-02-22T14:55:17;100497.44;;;35.18;8.18
50105;BME280;47690;39.202;-77.198;2023-02-22T14:58:21;100548.13;;;35.20;8.20
50105;BME280;47690;39.202;-77.198;2023-02-22T15:07:08;100578.34;;;34.97;8.18
50105;BME280;47690;39.202;-77.198;2023-02-22T15:10:03;100561.13;;;34.91;8.30
50105;BME280;47690;39.202;-77.198;2023-02-22T15:21:25;100499.84;;;35.05;8.33
50105;BME280;47690;39.202;-77.198;2023-02-22T15:24:04;100513.13;;;34.98;8.53
50105;BME280;47690;39.202;-77.198;2023-02-22T15:26:52;100490.31;;;35.02;8.77
50105;BME280;47690;39.202;-77.198;2023-02-22T15:29:41;100513.59;;;35.01;8.34
50105;BME280;47690;39.202;-77.198;2023-02-22T15:35:13;100491.22;;;34.94;8.83
50105;BME280;47690;39.202;-77.198;2023-02-22T15:38:05;100486.53;;;34.96;8.66
50105;BME280;47690;39.202;-77.198;2023-02-22T15:40:41;100444.41;;;34.90;8.64
50105;BME280;47690;39.202;-77.198;2023-02-22T15:43:24;100408.91;;;34.81;9.04
50105;BME280;47690;39.202;-77.198;2023-02-22T15:46:04;100414.97;;;34.75;9.02
50105;BME280;47690;39.202;-77.198;2023-02-22T15:48:41;100437.72;;;34.71;8.73
50105;BME280;47690;39.202;-77.198;2023-02-22T15:51:15;100413.81;;;34.69;8.76
50105;BME280;47690;39.202;-77.198;2023-02-22T15:53:52;100385.41;;;34.68;9.00
50105;BME280;47690;39.202;-77.198;2023-02-22T15:56:31;100387.59;;;34.65;9.23
50105;BME280;47690;39.202;-77.198;2023-02-22T15:59:16;100384.34;;;34.78;9.09
50105;BME280;47690;39.202;-77.198;2023-02-22T16:02:04;100379.09;;;34.84;8.97
50105;BME280;47690;39.202;-77.198;2023-02-22T16:04:37;100366.88;;;34.67;8.87
50105;BME280;47690;39.202;-77.198;2023-02-22T16:07:37;100383.19;;;34.72;9.25
50105;BME280;47690;39.202;-77.198;2023-02-22T16:10:33;100421.91;;;34.84;9.34
50105;BME280;47690;39.202;-77.198;2023-02-22T16:13:25;100429.75;;;34.86;9.40
50105;BME280;47690;39.202;-77.198;2023-02-22T16:16:36;100420.06;;;34.85;9.28
50105;BME280;47690;39.202;-77.198;2023-02-22T16:19:41;100436.53;;;34.97;9.50
50105;BME280;47690;39.202;-77.198;2023-02-22T16:22:41;100434.03;;;34.95;9.03
50105;BME280;47690;39.202;-77.198;2023-02-22T16:25:32;100404.41;;;34.97;9.33
50105;BME280;47690;39.202;-77.198;2023-02-22T16:28:33;100381.59;;;35.24;9.54
50105;BME280;47690;39.202;-77.198;2023-02-22T16:31:08;100361.09;;;35.17;9.26
50105;BME280;47690;39.202;-77.198;2023-02-22T16:33:41;100365.00;;;35.06;9.33
50105;BME280;47690;39.202;-77.198;2023-02-22T16:36:17;100338.63;;;35.03;9.34
50105;BME280;47690;39.202;-77.198;2023-02-22T16:38:50;100318.22;;;35.01;9.39
50105;BME280;47690;39.202;-77.198;2023-02-22T16:41:24;100311.47;;;35.06;9.36
50105;BME280;47690;39.202;-77.198;2023-02-22T16:44:07;100299.81;;;35.07;9.56
50105;BME280;47690;39.202;-77.198;2023-02-22T16:46:44;100304.16;;;35.08;9.89
50105;BME280;47690;39.202;-77.198;2023-02-22T16:49:15;100316.34;;;35.10;9.29
50105;BME280;47690;39.202;-77.198;2023-02-22T16:52:15;100301.53;;;35.45;9.64
50105;BME280;47690;39.202;-77.198;2023-02-22T16:54:47;100287.81;;;35.33;9.42
50105;BME280;47690;39.202;-77.198;2023-02-22T16:57:25;100283.28;;;35.33;9.79
50105;BME280;47690;39.202;-77.198;2023-02-22T17:00:21;100283.88;;;35.50;9.55
50105;BME280;47690;39.202;-77.198;2023-02-22T17:03:16;100294.06;;;35.55;9.30
50105;BME280;47690;39.202;-77.198;2023-02-22T17:05:50;100283.72;;;35.52;9.22
50105;BME280;47690;39.202;-77.198;2023-02-22T17:08:40;100233.19;;;35.64;9.42
50105;BME280;47690;39.202;-77.198;2023-02-22T17:11:15;100204.66;;;35.56;9.69
50105;BME280;47690;39.202;-77.198;2023-02-22T17:13:51;100195.69;;;35.64;9.35
50105;BME280;47690;39.202;-77.198;2023-02-22T17:16:22;100186.00;;;35.63;9.27
50105;BME280;47690;39.202;-77.198;2023-02-22T17:19:04;100187.59;;;35.79;9.31
50105;BME280;47690;39.202;-77.198;2023-02-22T17:21:41;100184.78;;;35.87;9.12
50105;BME280;47690;39.202;-77.198;2023-02-22T17:24:21;100165.31;;;36.00;9.44
50105;BME280;47690;39.202;-77.198;2023-02-22T17:27:03;100157.88;;;36.24;9.48
50105;BME280;47690;39.202;-77.198;2023-02-22T17:29:34;100162.88;;;36.27;9.32
50105;BME280;47690;39.202;-77.198;2023-02-22T17:32:07;100155.53;;;36.36;8.96
50105;BME280;47690;39.202;-77.198;2023-02-22T17:34:41;100137.84;;;36.48;8.73
50105;BME280;47690;39.202;-77.198;2023-02-22T17:37:15;100121.97;;;36.47;9.30
50105;BME280;47690;39.202;-77.198;2023-02-22T17:39:47;100114.47;;;36.42;9.31
50105;BME280;47690;39.202;-77.198;2023-02-22T17:42:21;100118.63;;;36.45;8.86
50105;BME280;47690;39.202;-77.198;2023-02-22T17:45:01;100092.16;;;36.63;8.81
50105;BME280;47690;39.202;-77.198;2023-02-22T17:47:33;100082.47;;;36.76;8.76
50105;BME280;47690;39.202;-77.198;2023-02-22T17:50:11;100061.06;;;36.83;9.03
50105;BME280;47690;39.202;-77.198;2023-02-22T17:52:49;100042.50;;;37.01;8.60
50105;BME280;47690;39.202;-77.198;2023-02-22T17:55:23;100039.25;;;37.06;8.88
50105;BME280;47690;39.202;-77.198;2023-02-22T17:58:17;100021.50;;;37.18;8.57
50105;BME280;47690;39.202;-77.198;2023-02-22T18:01:17;100024.59;;;37.22;8.14
50105;BME280;47690;39.202;-77.198;2023-02-22T18:04:04;100023.78;;;37.35;8.32
50105;BME280;47690;39.202;-77.198;2023-02-22T18:06:41;100041.53;;;37.50;8.43
50105;BME280;47690;39.202;-77.198;2023-02-22T18:09:13;100021.56;;;37.59;8.48
50105;BME280;47690;39.202;-77.198;2023-02-22T18:11:52;100025.06;;;37.60;8.20
50105;BME280;47690;39.202;-77.198;2023-02-22T18:14:25;100016.97;;;37.53;8.00
50105;BME280;47690;39.202;-77.198;2023-02-22T18:17:01;100009.53;;;37.55;7.97
50105;BME280;47690;39.202;-77.198;2023-02-22T18:19:36;100011.63;;;37.60;8.13
50105;BME280;47690;39.202;-77.198;2023-02-22T18:22:19;99989.47;;;37.78;8.23
50105;BME280;47690;39.202;-77.198;2023-02-22T18:25:20;99968.56;;;38.00;7.71
50105;BME280;47690;39.202;-77.198;2023-02-22T18:28:05;99973.31;;;38.05;7.88
50105;BME280;47690;39.202;-77.198;2023-02-22T18:31:10;99984.81;;;38.25;7.86
50105;BME280;47690;39.202;-77.198;2023-02-22T18:33:48;99989.00;;;38.08;7.67
50105;BME280;47690;39.202;-77.198;2023-02-22T18:36:25;99951.38;;;38.15;7.87
50105;BME280;47690;39.202;-77.198;2023-02-22T18:39:06;99951.88;;;38.37;7.84
50105;BME280;47690;39.202;-77.198;2023-02-22T18:41:44;99949.97;;;38.44;7.53
50105;BME280;47690;39.202;-77.198;2023-02-22T18:44:21;99968.97;;;38.49;7.75
50105;BME280;47690;39.202;-77.198;2023-02-22T18:47:04;99974.13;;;38.58;7.62
50105;BME280;47690;39.202;-77.198;2023-02-22T18:50:05;99963.50;;;38.70;7.22
50105;BME280;47690;39.202;-77.198;2023-02-22T18:57:15;99984.44;;;38.61;7.51
50105;BME280;47690;39.202;-77.198;2023-02-22T18:59:48;99985.19;;;38.36;7.69
50105;BME280;47690;39.202;-77.198;2023-02-22T19:02:20;99981.09;;;38.26;8.04
50105;BME280;47690;39.202;-77.198;2023-02-22T19:05:04;99973.22;;;38.32;7.45
50105;BME280;47690;39.202;-77.198;2023-02-22T19:07:37;99974.88;;;38.33;7.67
50105;BME280;47690;39.202;-77.198;2023-02-22T19:10:12;99985.44;;;38.28;7.61
50105;BME280;47690;39.202;-77.198;2023-02-22T19:12:42;99975.72;;;38.26;7.53
50105;BME280;47690;39.202;-77.198;2023-02-22T19:15:20;99975.81;;;38.45;7.37
50105;BME280;47690;39.202;-77.198;2023-02-22T19:18:05;99979.31;;;38.52;7.21
50105;BME280;47690;39.202;-77.198;2023-02-22T19:20:59;99973.63;;;38.74;7.55
50105;BME280;47690;39.202;-77.198;2023-02-22T19:23:35;99980.16;;;38.53;7.10
50105;BME280;47690;39.202;-77.198;2023-02-22T19:26:09;99972.38;;;38.31;7.46
50105;BME280;47690;39.202;-77.198;2023-02-22T19:28:41;99972.41;;;38.24;7.37
50105;BME280;47690;39.202;-77.198;2023-02-22T19:31:25;99970.53;;;38.32;7.80
50105;BME280;47690;39.202;-77.198;2023-02-22T19:34:09;99968.47;;;38.27;7.73
50105;BME280;47690;39.202;-77.198;2023-02-22T19:36:48;99972.97;;;38.33;7.78
50105;BME280;47690;39.202;-77.198;2023-02-22T19:39:20;99969.91;;;38.30;7.67